createdAt,value
2023-04-26T00:02:02.522Z,95933.03
2023-04-26T00:04:30.358Z,95934.84
2023-04-26T00:06:58.120Z,95931.22
2023-04-26T00:09:25.475Z,95931.22
2023-04-26T00:11:53.011Z,95930.38
2023-04-26T00:14:20.282Z,95917.22
2023-04-26T00:16:47.653Z,95904.88
2023-04-26T00:19:14.910Z,95909.47
2023-04-26T00:21:42.271Z,95907.34
2023-04-26T00:24:09.902Z,95907.34
2023-04-26T00:26:37.358Z,95913.63
2023-04-26T00:29:05.562Z,95902.25
2023-04-26T00:31:33.420Z,95905.56
2023-04-26T00:34:01.175Z,95912.78
2023-04-26T00:36:28.362Z,95911.25
2023-04-26T00:38:55.905Z,95919.03
2023-04-26T00:41:23.197Z,95920.94
2023-04-26T00:43:50.770Z,95909.56
2023-04-26T00:46:18.126Z,95916.25
2023-04-26T00:48:45.484Z,95918.06
2023-04-26T00:51:13.778Z,95914.59
2023-04-26T00:53:42.104Z,95918.06
2023-04-26T00:56:13.129Z,95919.44
2023-04-26T00:58:40.515Z,95921.09
2023-04-26T01:01:08.325Z,95920.28
2023-04-26T01:03:37.829Z,95915.13
2023-04-26T01:06:05.352Z,95917.63
2023-04-26T01:08:32.641Z,95919.69
2023-04-26T01:11:00.167Z,95923.47
2023-04-26T01:13:28.182Z,95932.88
2023-04-26T01:15:56.732Z,95925.13
2023-04-26T01:18:24.465Z,95924.28
2023-04-26T01:20:53.517Z,95925.97
2023-04-26T01:23:20.812Z,95926.81
2023-04-26T01:25:48.627Z,95929.81
2023-04-26T01:28:15.995Z,95930.06
2023-04-26T01:30:43.858Z,95931.03
2023-04-26T01:33:11.792Z,95930.91
2023-04-26T01:35:39.121Z,95931.72
2023-04-26T01:38:06.506Z,95937.56
2023-04-26T01:40:33.751Z,95938.41
2023-04-26T01:43:03.677Z,95939.09
2023-04-26T01:45:31.539Z,95933.84
2023-04-26T01:48:17.132Z,95934.22
2023-04-26T01:50:44.582Z,95941.16
2023-04-26T01:53:14.019Z,95935.19
2023-04-26T01:55:42.103Z,95934.91
2023-04-26T01:58:09.979Z,95933.22
2023-04-26T02:00:38.133Z,95934.78
2023-04-26T02:03:05.680Z,95930.59
2023-04-26T02:05:33.061Z,95928.66
2023-04-26T02:08:00.371Z,95941.84
2023-04-26T02:10:27.727Z,95943.63
2023-04-26T02:12:55.021Z,95945.31
2023-04-26T02:15:22.408Z,95941.13
2023-04-26T02:17:49.995Z,95943.88
2023-04-26T02:20:17.322Z,95943.88
2023-04-26T02:22:44.545Z,95942.25
2023-04-26T02:25:16.129Z,95938.63
2023-04-26T02:27:43.323Z,95935.31
2023-04-26T02:30:10.971Z,95936.97
2023-04-26T02:32:38.346Z,95935.44
2023-04-26T02:35:06.231Z,95935.19
2023-04-26T02:37:37.669Z,95937.66
2023-04-26T02:40:06.308Z,95936.81
2023-04-26T02:42:33.532Z,95937.53
2023-04-26T02:45:01.038Z,95930.59
2023-04-26T02:47:28.403Z,95936.16
2023-04-26T02:49:56.393Z,95930.44
2023-04-26T02:52:23.720Z,95929.59
2023-04-26T02:54:51.410Z,95923.59
2023-04-26T02:57:18.708Z,95921.31
2023-04-26T02:59:45.970Z,95926.03
2023-04-26T03:02:13.408Z,95921.31
2023-04-26T03:04:40.788Z,95924.53
2023-04-26T03:07:08.004Z,95922.16
2023-04-26T03:09:38.520Z,95928.00
2023-04-26T03:12:09.500Z,95934.22
2023-04-26T03:14:39.005Z,95932.56
2023-04-26T03:17:06.610Z,95936.84
2023-04-26T03:19:34.636Z,95933.50
2023-04-26T03:22:04.221Z,95935.47
2023-04-26T03:24:32.082Z,95933.78
2023-04-26T03:27:00.368Z,95933.78
2023-04-26T03:29:27.702Z,95939.06
2023-04-26T03:31:55.009Z,95938.34
2023-04-26T03:34:22.401Z,95946.13
2023-04-26T03:36:50.035Z,95948.75
2023-04-26T03:39:17.282Z,95950.28
2023-04-26T03:41:44.624Z,95947.91
2023-04-26T03:44:13.404Z,95950.09
2023-04-26T03:46:41.023Z,95951.75
2023-04-26T03:49:08.381Z,95944.69
2023-04-26T03:51:35.732Z,95946.81
2023-04-26T03:54:02.974Z,95942.94
2023-04-26T03:56:30.234Z,95941.41
2023-04-26T03:58:57.465Z,95950.09
2023-04-26T04:01:26.673Z,95949.59
2023-04-26T04:03:54.659Z,95949.00
2023-04-26T04:06:22.317Z,95950.56
2023-04-26T04:08:50.787Z,95960.13
2023-04-26T04:11:18.269Z,95956.53
2023-04-26T04:13:46.569Z,95957.31
2023-04-26T04:16:13.943Z,95960.66
2023-04-26T04:18:41.623Z,95962.47
2023-04-26T04:21:08.989Z,95959.59
2023-04-26T04:23:37.075Z,95968.19
2023-04-26T04:26:08.380Z,95974.13
2023-04-26T04:28:35.745Z,95966.94
2023-04-26T04:31:03.235Z,95969.16
2023-04-26T04:33:41.250Z,95971.25
2023-04-26T04:36:10.601Z,95972.75
2023-04-26T04:38:37.868Z,95972.03
2023-04-26T04:41:08.859Z,95978.72
2023-04-26T04:43:36.768Z,95987.03
2023-04-26T04:46:04.146Z,95981.66
2023-04-26T04:48:31.473Z,95986.50
2023-04-26T04:50:58.850Z,95992.25
2023-04-26T04:53:26.590Z,95991.84
2023-04-26T04:55:53.909Z,95995.75
2023-04-26T04:58:22.850Z,95994.38
2023-04-26T05:00:51.860Z,95992.88
2023-04-26T05:03:27.181Z,95998.03
2023-04-26T05:05:54.623Z,95997.34
2023-04-26T05:08:22.284Z,96002.91
2023-04-26T05:10:50.056Z,96008.75
2023-04-26T05:13:17.486Z,96012.28
2023-04-26T05:15:45.032Z,96014.53
2023-04-26T05:18:12.608Z,96017.19
2023-04-26T05:20:40.236Z,96019.28
2023-04-26T05:23:07.609Z,96018.34
2023-04-26T05:25:38.046Z,96013.88
2023-04-26T05:28:23.076Z,96017.94
2023-04-26T05:31:14.581Z,96016.97
2023-04-26T05:34:01.279Z,96020.72
2023-04-26T05:36:43.229Z,96022.47
2023-04-26T05:39:10.976Z,96017.47
2023-04-26T05:41:38.765Z,96021.66
2023-04-26T05:44:06.040Z,96020.88
2023-04-26T05:46:33.416Z,96027.09
2023-04-26T05:49:00.705Z,96017.34
2023-04-26T05:51:28.643Z,96022.59
2023-04-26T05:53:56.147Z,96026.97
2023-04-26T05:56:24.813Z,96025.53
2023-04-26T05:58:53.213Z,96022.47
2023-04-26T06:01:20.865Z,96019.34
2023-04-26T06:03:48.462Z,96033.34
2023-04-26T06:06:20.463Z,96035.09
2023-04-26T06:08:49.099Z,96037.94
2023-04-26T06:11:16.372Z,96039.59
2023-04-26T06:13:43.938Z,96048.34
2023-04-26T06:16:11.749Z,96043.09
2023-04-26T06:18:38.950Z,96046.22
2023-04-26T06:21:07.347Z,96040.94
2023-04-26T06:23:34.531Z,96041.38
2023-04-26T06:26:01.855Z,96033.22
2023-04-26T06:28:29.818Z,96036.59
2023-04-26T06:30:57.417Z,96041.19
2023-04-26T06:33:25.779Z,96036.47
2023-04-26T06:35:53.072Z,96029.53
2023-04-26T06:38:20.500Z,96033.06
2023-04-26T06:40:49.317Z,96033.72
2023-04-26T06:43:17.479Z,96027.94
2023-04-26T06:46:13.990Z,96039.13
2023-04-26T06:48:41.439Z,96050.63
2023-04-26T06:51:09.208Z,96045.88
2023-04-26T06:53:37.257Z,96049.81
2023-04-26T06:56:04.648Z,96058.16
2023-04-26T06:58:32.078Z,96057.69
2023-04-26T07:00:59.623Z,96055.34
2023-04-26T07:03:27.349Z,96050.81
2023-04-26T07:05:56.778Z,96058.31
2023-04-26T07:08:24.130Z,96058.34
2023-04-26T07:10:52.173Z,96062.31
2023-04-26T07:13:19.473Z,96058.16
2023-04-26T07:15:46.793Z,96054.72
2023-04-26T07:18:14.444Z,96062.13
2023-04-26T07:20:41.775Z,96052.53
2023-04-26T07:23:09.024Z,96042.66
2023-04-26T07:25:36.346Z,96051.44
2023-04-26T07:28:03.700Z,96051.97
2023-04-26T07:30:32.898Z,96046.38
2023-04-26T07:33:01.169Z,96045.19
2023-04-26T07:35:28.429Z,96046.19
2023-04-26T07:37:55.764Z,96039.59
2023-04-26T07:40:26.688Z,96047.34
2023-04-26T07:42:54.031Z,96039.63
2023-04-26T07:45:21.788Z,96042.84
2023-04-26T07:47:49.172Z,96040.13
2023-04-26T07:50:16.568Z,96034.47
2023-04-26T07:52:43.939Z,96041.06
2023-04-26T07:55:11.664Z,96042.78
2023-04-26T07:57:39.040Z,96040.53
2023-04-26T08:00:10.749Z,96052.50
2023-04-26T08:02:45.047Z,96053.53
2023-04-26T08:05:14.283Z,96045.84
2023-04-26T08:07:42.574Z,96056.63
2023-04-26T08:10:10.789Z,96057.72
2023-04-26T08:12:39.224Z,96056.63
2023-04-26T08:15:06.984Z,96049.56
2023-04-26T08:17:35.349Z,96052.88
2023-04-26T08:20:02.698Z,96037.75
2023-04-26T08:22:30.056Z,96037.28
2023-04-26T08:24:57.478Z,96042.09
2023-04-26T08:27:24.734Z,96040.31
2023-04-26T08:29:52.018Z,96034.00
2023-04-26T08:32:19.340Z,96024.72
2023-04-26T08:34:46.978Z,96026.16
2023-04-26T08:37:14.297Z,96028.38
2023-04-26T08:39:42.037Z,96026.31
2023-04-26T08:42:17.036Z,96029.72
2023-04-26T08:44:46.063Z,96028.56
2023-04-26T08:47:16.322Z,96031.41
2023-04-26T08:49:45.873Z,96029.56
2023-04-26T08:52:15.497Z,96025.13
2023-04-26T08:54:43.308Z,96030.06
2023-04-26T08:57:10.844Z,96027.75
2023-04-26T08:59:39.503Z,96031.66
2023-04-26T09:02:07.870Z,96029.66
2023-04-26T09:04:35.582Z,96030.09
2023-04-26T09:07:07.729Z,96025.50
2023-04-26T09:09:39.323Z,96024.84
2023-04-26T09:12:06.761Z,96029.25
2023-04-26T09:14:34.123Z,96028.53
2023-04-26T09:17:01.683Z,96022.47
2023-04-26T09:19:40.580Z,96020.94
2023-04-26T09:22:09.235Z,96026.50
2023-04-26T09:24:52.645Z,96024.34
2023-04-26T09:27:20.432Z,96024.56
2023-04-26T09:30:09.684Z,96021.94
2023-04-26T09:32:47.026Z,96022.59
2023-04-26T09:35:30.891Z,96014.59
2023-04-26T09:38:11.809Z,96020.00
2023-04-26T09:40:42.594Z,96022.44
2023-04-26T09:43:18.500Z,96018.03
2023-04-26T09:45:56.470Z,96019.75
2023-04-26T09:48:32.525Z,96017.63
2023-04-26T09:51:11.808Z,96024.97
2023-04-26T09:53:48.648Z,96012.34
2023-04-26T09:56:19.203Z,96008.13
2023-04-26T09:58:58.489Z,96020.16
2023-04-26T10:01:28.807Z,96008.38
2023-04-26T10:03:58.155Z,96005.66
2023-04-26T10:06:26.045Z,96005.31
2023-04-26T10:08:53.485Z,95998.59
2023-04-26T10:11:22.255Z,96000.53
2023-04-26T10:13:52.045Z,96009.47
2023-04-26T10:16:21.295Z,96003.25
2023-04-26T10:18:50.020Z,96001.19
2023-04-26T10:21:26.220Z,95992.69
2023-04-26T10:23:54.055Z,95990.47
2023-04-26T10:26:50.350Z,95997.00
2023-04-26T10:29:18.141Z,95994.34
2023-04-26T10:32:04.976Z,95989.31
2023-04-26T10:34:35.084Z,95993.78
2023-04-26T10:37:18.623Z,95990.00
2023-04-26T10:39:47.579Z,95991.31
2023-04-26T10:42:25.853Z,95995.47
2023-04-26T10:44:55.705Z,95990.97
2023-04-26T10:47:27.145Z,95992.03
2023-04-26T10:50:11.637Z,95993.88
2023-04-26T10:53:04.641Z,95991.69
2023-04-26T10:55:42.966Z,95986.16
2023-04-26T10:58:33.839Z,95980.41
2023-04-26T11:01:21.496Z,95977.91
2023-04-26T11:03:58.393Z,95978.69
2023-04-26T11:06:27.201Z,95969.41
2023-04-26T11:08:55.197Z,95971.94
2023-04-26T11:11:27.338Z,95973.81
2023-04-26T11:13:54.632Z,95961.38
2023-04-26T11:16:21.950Z,95946.31
2023-04-26T11:18:49.316Z,95946.47
2023-04-26T11:21:19.247Z,95950.16
2023-04-26T11:23:56.395Z,95949.41
2023-04-26T11:26:25.106Z,95936.88
2023-04-26T11:28:52.757Z,95945.75
2023-04-26T11:31:20.209Z,95948.34
2023-04-26T11:33:49.897Z,95945.88
2023-04-26T11:36:19.950Z,95943.69
2023-04-26T11:38:47.546Z,95943.69
2023-04-26T11:41:14.872Z,95943.59
2023-04-26T11:43:42.367Z,95949.91
2023-04-26T11:46:10.516Z,95945.03
2023-04-26T11:48:39.255Z,95943.94
2023-04-26T11:51:08.686Z,95940.84
2023-04-26T11:53:43.448Z,95942.38
2023-04-26T11:56:18.100Z,95944.84
2023-04-26T11:58:50.421Z,95938.97
2023-04-26T12:01:28.055Z,95934.78
2023-04-26T12:03:58.566Z,95942.91
2023-04-26T12:06:42.006Z,95945.81
2023-04-26T12:09:09.720Z,95946.72
2023-04-26T12:11:37.109Z,95945.41
2023-04-26T12:14:04.475Z,95944.03
2023-04-26T12:16:32.146Z,95948.09
2023-04-26T12:18:59.487Z,95951.19
2023-04-26T12:21:30.709Z,95950.31
2023-04-26T12:23:58.501Z,95946.44
2023-04-26T12:26:43.321Z,95940.50
2023-04-26T12:29:10.807Z,95936.59
2023-04-26T12:31:38.142Z,95938.63
2023-04-26T12:34:05.391Z,95932.66
2023-04-26T12:36:32.960Z,95934.28
2023-04-26T12:39:01.324Z,95929.13
2023-04-26T12:41:28.473Z,95935.09
2023-04-26T12:43:55.742Z,95927.88
2023-04-26T12:46:22.954Z,95933.88
2023-04-26T12:48:50.251Z,95936.09
2023-04-26T12:51:17.506Z,95937.38
2023-04-26T12:53:44.815Z,95934.69
2023-04-26T12:56:12.092Z,95932.13
2023-04-26T12:58:39.440Z,95924.13
2023-04-26T13:01:06.681Z,95923.88
2023-04-26T13:03:34.087Z,95920.84
2023-04-26T13:06:02.010Z,95909.53
2023-04-26T13:08:29.362Z,95905.19
2023-04-26T13:10:57.102Z,95912.19
2023-04-26T13:13:32.427Z,95912.63
2023-04-26T13:16:07.884Z,95904.97
2023-04-26T13:18:35.179Z,95912.78
2023-04-26T13:21:02.554Z,95910.22
2023-04-26T13:23:29.717Z,95904.81
2023-04-26T13:25:57.022Z,95915.91
2023-04-26T13:28:24.197Z,95912.50
2023-04-26T13:30:53.106Z,95913.38
2023-04-26T13:33:21.712Z,95907.69
2023-04-26T13:35:49.173Z,95911.72
2023-04-26T13:38:17.184Z,95913.63
2023-04-26T13:40:45.358Z,95909.50
2023-04-26T13:43:12.691Z,95906.00
2023-04-26T13:45:40.038Z,95894.25
2023-04-26T13:48:07.589Z,95891.78
2023-04-26T13:50:37.035Z,95883.38
2023-04-26T13:53:04.870Z,95877.63
2023-04-26T13:55:32.361Z,95883.72
2023-04-26T13:57:59.637Z,95885.81
2023-04-26T14:00:27.558Z,95888.91
2023-04-26T14:02:55.039Z,95888.91
2023-04-26T14:05:24.014Z,95887.25
2023-04-26T14:07:53.549Z,95880.00
2023-04-26T14:10:22.373Z,95875.84
2023-04-26T14:12:49.781Z,95885.75
2023-04-26T14:15:17.128Z,95871.53
2023-04-26T14:17:47.226Z,95886.09
2023-04-26T14:20:14.838Z,95887.84
2023-04-26T14:22:42.135Z,95882.06
2023-04-26T14:25:10.043Z,95879.31
2023-04-26T14:27:39.756Z,95880.44
2023-04-26T14:30:07.989Z,95884.09
2023-04-26T14:32:35.343Z,95888.59
2023-04-26T14:35:02.780Z,95883.28
2023-04-26T14:37:30.070Z,95882.66
2023-04-26T14:39:57.367Z,95882.16
2023-04-26T14:42:24.580Z,95876.53
2023-04-26T14:44:52.037Z,95873.81
2023-04-26T14:47:19.398Z,95873.47
2023-04-26T14:49:46.711Z,95880.78
2023-04-26T14:52:14.008Z,95880.28
2023-04-26T14:54:41.969Z,95881.50
2023-04-26T14:57:10.616Z,95878.13
2023-04-26T14:59:38.031Z,95889.56
2023-04-26T15:02:05.891Z,95886.81
2023-04-26T15:04:33.354Z,95880.38
2023-04-26T15:07:00.985Z,95875.88
2023-04-26T15:09:30.406Z,95878.84
2023-04-26T15:11:58.108Z,95873.44
2023-04-26T15:14:25.310Z,95875.44
2023-04-26T15:16:52.761Z,95871.06
2023-04-26T15:19:20.120Z,95876.75
2023-04-26T15:21:47.485Z,95873.25
2023-04-26T15:24:14.658Z,95876.31
2023-04-26T15:26:42.431Z,95873.00
2023-04-26T15:29:09.598Z,95873.00
2023-04-26T15:31:37.342Z,95876.03
2023-04-26T15:34:05.027Z,95873.91
2023-04-26T15:36:32.466Z,95871.81
2023-04-26T15:38:59.753Z,95870.34
2023-04-26T15:41:27.189Z,95868.31
2023-04-26T15:43:57.877Z,95872.03
2023-04-26T15:46:25.206Z,95869.41
2023-04-26T15:48:52.650Z,95862.78
2023-04-26T15:51:19.936Z,95870.81
2023-04-26T15:53:47.168Z,95871.50
2023-04-26T15:56:18.620Z,95877.69
2023-04-26T15:58:47.362Z,95872.97
2023-04-26T16:01:15.306Z,95875.78
2023-04-26T16:03:46.545Z,95875.72
2023-04-26T16:06:15.148Z,95878.94
2023-04-26T16:08:42.638Z,95878.66
2023-04-26T16:11:10.030Z,95879.38
2023-04-26T16:13:37.591Z,95881.72
2023-04-26T16:16:11.978Z,95884.44
2023-04-26T16:18:44.152Z,95882.94
2023-04-26T16:21:13.482Z,95882.09
2023-04-26T16:23:42.179Z,95883.09
2023-04-26T16:26:09.863Z,95878.94
2023-04-26T16:28:37.361Z,95881.13
2023-04-26T16:31:04.863Z,95880.47
2023-04-26T16:33:32.117Z,95881.13
2023-04-26T16:35:59.575Z,95880.63
2023-04-26T16:38:27.152Z,95883.16
2023-04-26T16:40:59.248Z,95886.00
2023-04-26T16:43:27.563Z,95873.56
2023-04-26T16:46:08.317Z,95873.88
2023-04-26T16:48:37.428Z,95873.06
2023-04-26T16:51:07.598Z,95873.47
2023-04-26T16:53:36.144Z,95874.31
2023-04-26T16:56:04.263Z,95876.31
2023-04-26T16:58:31.838Z,95878.47
2023-04-26T17:00:59.171Z,95886.63
2023-04-26T17:03:27.123Z,95880.00
2023-04-26T17:05:54.708Z,95874.81
2023-04-26T17:08:22.332Z,95889.91
2023-04-26T17:10:49.866Z,95888.25
2023-04-26T17:13:17.188Z,95897.19
2023-04-26T17:15:44.599Z,95893.53
2023-04-26T17:18:12.020Z,95899.34
2023-04-26T17:20:39.361Z,95898.81
2023-04-26T17:23:08.209Z,95900.81
2023-04-26T17:25:35.557Z,95904.94
2023-04-26T17:28:03.256Z,95911.91
2023-04-26T17:30:30.872Z,95902.09
2023-04-26T17:32:58.214Z,95911.84
2023-04-26T17:35:25.678Z,95916.13
2023-04-26T17:37:52.993Z,95911.63
2023-04-26T17:40:20.471Z,95919.56
2023-04-26T17:42:47.952Z,95918.50
2023-04-26T17:45:15.448Z,95915.66
2023-04-26T17:47:43.472Z,95923.41
2023-04-26T17:50:11.169Z,95917.25
2023-04-26T17:52:38.817Z,95924.16
2023-04-26T17:55:08.791Z,95929.41
2023-04-26T17:57:39.380Z,95923.22
2023-04-26T18:00:07.147Z,95927.59
2023-04-26T18:02:35.698Z,95927.56
2023-04-26T18:05:04.254Z,95929.16
2023-04-26T18:07:31.745Z,95925.44
2023-04-26T18:09:58.947Z,95933.16
2023-04-26T18:12:26.467Z,95935.75
2023-04-26T18:14:53.707Z,95937.50
2023-04-26T18:17:21.200Z,95939.38
2023-04-26T18:19:48.445Z,95944.22
2023-04-26T18:22:15.859Z,95949.72
2023-04-26T18:24:43.063Z,95957.91
2023-04-26T18:27:13.482Z,95958.38
2023-04-26T18:29:41.101Z,95957.34
2023-04-26T18:32:08.532Z,95957.72
2023-04-26T18:34:35.870Z,95958.72
2023-04-26T18:37:03.217Z,95965.19
2023-04-26T18:39:30.862Z,95965.34
2023-04-26T18:42:02.436Z,95968.13
2023-04-26T18:44:29.619Z,95964.69
2023-04-26T18:46:57.280Z,95967.22
2023-04-26T18:49:25.792Z,95972.06
2023-04-26T18:51:53.232Z,95967.06
2023-04-26T18:54:20.567Z,95978.75
2023-04-26T18:56:47.858Z,95984.31
2023-04-26T18:59:15.159Z,95987.25
2023-04-26T19:01:42.528Z,95985.72
2023-04-26T19:04:10.110Z,95995.44
2023-04-26T19:06:37.634Z,95992.78
2023-04-26T19:09:06.871Z,95996.41
2023-04-26T19:11:34.239Z,95993.75
2023-04-26T19:14:01.632Z,95991.94
2023-04-26T19:16:29.042Z,95994.03
2023-04-26T19:18:56.235Z,95997.63
2023-04-26T19:21:23.523Z,95998.63
2023-04-26T19:23:50.956Z,95996.00
2023-04-26T19:26:18.440Z,95999.47
2023-04-26T19:28:45.885Z,95999.47
2023-04-26T19:31:13.372Z,95998.47
2023-04-26T19:33:40.843Z,96003.75
2023-04-26T19:36:10.357Z,96007.91
2023-04-26T19:38:37.601Z,96006.81
2023-04-26T19:41:04.885Z,96001.41
2023-04-26T19:43:32.219Z,96016.28
2023-04-26T19:45:59.801Z,96017.78
2023-04-26T19:48:28.373Z,96015.13
2023-04-26T19:50:55.705Z,96013.63
2023-04-26T19:53:23.043Z,96012.09
2023-04-26T19:55:50.366Z,96006.25
2023-04-26T19:58:17.645Z,96011.97
2023-04-26T20:00:44.919Z,96010.44
2023-04-26T20:03:12.487Z,96012.38
2023-04-26T20:05:39.834Z,96008.34
2023-04-26T20:08:07.170Z,96005.16
2023-04-26T20:10:34.673Z,96015.00
2023-04-26T20:13:03.122Z,96011.56
2023-04-26T20:15:32.269Z,96019.59
2023-04-26T20:18:02.650Z,96016.38
2023-04-26T20:20:30.011Z,96014.19
2023-04-26T20:22:57.360Z,96012.50
2023-04-26T20:25:24.692Z,96008.34
2023-04-26T20:27:52.008Z,96018.03
2023-04-26T20:30:19.405Z,96013.47
2023-04-26T20:32:47.423Z,96014.16
2023-04-26T20:35:14.704Z,96022.31
2023-04-26T20:37:42.014Z,96019.41
2023-04-26T20:40:09.896Z,96021.63
2023-04-26T20:42:37.181Z,96018.97
2023-04-26T20:45:04.761Z,96016.97
2023-04-26T20:47:32.783Z,96025.38
2023-04-26T20:50:00.172Z,96026.16
2023-04-26T20:52:27.539Z,96030.16
2023-04-26T20:54:56.850Z,96026.13
2023-04-26T20:57:24.984Z,96032.09
2023-04-26T20:59:52.224Z,96034.72
2023-04-26T21:02:19.749Z,96039.59
2023-04-26T21:04:47.390Z,96035.28
2023-04-26T21:07:14.909Z,96031.81
2023-04-26T21:09:43.208Z,96040.03
2023-04-26T21:12:10.504Z,96039.94
2023-04-26T21:14:37.784Z,96042.91
2023-04-26T21:17:06.305Z,96036.38
2023-04-26T21:19:33.689Z,96039.44
2023-04-26T21:22:00.904Z,96045.41
2023-04-26T21:24:28.426Z,96047.22
2023-04-26T21:26:55.778Z,96044.56
2023-04-26T21:29:23.042Z,96039.88
2023-04-26T21:31:50.392Z,96036.31
2023-04-26T21:34:17.777Z,96048.13
2023-04-26T21:36:45.198Z,96042.59
2023-04-26T21:39:12.687Z,96033.41
2023-04-26T21:41:40.110Z,96031.19
2023-04-26T21:44:07.651Z,96035.50
2023-04-26T21:46:34.974Z,96032.19
2023-04-26T21:49:02.223Z,96036.47
2023-04-26T21:51:29.473Z,96034.84
2023-04-26T21:53:56.803Z,96042.03
2023-04-26T21:56:24.541Z,96040.38
2023-04-26T21:58:51.763Z,96042.16
2023-04-26T22:01:19.043Z,96043.97
2023-04-26T22:03:46.583Z,96048.94
2023-04-26T22:06:14.104Z,96045.31
2023-04-26T22:08:41.634Z,96039.34
2023-04-26T22:11:08.924Z,96045.69
2023-04-26T22:13:36.197Z,96052.09
2023-04-26T22:16:03.865Z,96046.66
2023-04-26T22:18:31.181Z,96042.75
2023-04-26T22:20:58.531Z,96042.19
2023-04-26T22:23:26.142Z,96047.47
2023-04-26T22:25:53.391Z,96044.69
2023-04-26T22:28:20.831Z,96045.53
2023-04-26T22:30:48.092Z,96047.03
2023-04-26T22:33:15.400Z,96048.59
2023-04-26T22:35:42.824Z,96051.22
2023-04-26T22:38:10.150Z,96050.97
2023-04-26T22:40:37.554Z,96053.59
2023-04-26T22:43:04.802Z,96062.19
2023-04-26T22:45:32.016Z,96050.97
2023-04-26T22:47:59.403Z,96056.06
2023-04-26T22:50:26.678Z,96053.44
2023-04-26T22:52:54.130Z,96057.63
2023-04-26T22:55:21.356Z,96052.94
2023-04-26T22:57:48.752Z,96048.34
2023-04-26T23:00:16.350Z,96053.47
2023-04-26T23:02:43.905Z,96049.34
2023-04-26T23:05:11.740Z,96055.41
2023-04-26T23:07:40.049Z,96050.97
2023-04-26T23:10:07.957Z,96068.59
2023-04-26T23:12:36.473Z,96056.41
2023-04-26T23:15:05.873Z,96062.66
2023-04-26T23:17:34.551Z,96069.84
2023-04-26T23:20:02.114Z,96064.81
2023-04-26T23:22:29.536Z,96067.75
2023-04-26T23:24:56.831Z,96063.69
2023-04-26T23:27:25.443Z,96059.66
2023-04-26T23:29:52.663Z,96053.81
2023-04-26T23:32:19.892Z,96059.50
2023-04-26T23:34:47.270Z,96053.78
2023-04-26T23:37:14.521Z,96052.50
2023-04-26T23:39:41.754Z,96049.44
2023-04-26T23:42:09.075Z,96054.25
2023-04-26T23:44:36.379Z,96050.47
2023-04-26T23:47:03.727Z,96045.88
2023-04-26T23:49:31.142Z,96052.63
2023-04-26T23:51:58.430Z,96058.66
2023-04-26T23:54:25.814Z,96056.53
2023-04-26T23:56:53.074Z,96046.50
2023-04-26T23:59:20.272Z,96046.19
